sensor_id;sensor_type;location;lat;lon;timestamp;temperature;humidity
2993;DHT22;1506;48.932;9.478;2022-12-29T08:44:26;12.50;1.00
2993;DHT22;1506;48.932;9.478;2022-12-29T08:46:53;12.60;1.00
2993;DHT22;1506;48.932;9.478;2022-12-29T08:49:20;12.60;1.00
2993;DHT22;1506;48.932;9.478;2022-12-29T08:51:47;12.70;1.00
2993;DHT22;1506;48.932;9.478;2022-12-29T08:54:14;12.70;1.00
2993;DHT22;1506;48.932;9.478;2022-12-29T08:56:41;12.70;1.00
2993;DHT22;1506;48.932;9.478;2022-12-29T08:59:08;12.80;1.00
2993;DHT22;1506;48.932;9.478;2022-12-29T09:01:36;12.70;1.00
2993;DHT22;1506;48.932;9.478;2022-12-29T09:04:07;12.70;1.00
2993;DHT22;1506;48.932;9.478;2022-12-29T09:06:44;12.80;1.00
2993;DHT22;1506;48.932;9.478;2022-12-29T09:09:12;12.80;1.00
2993;DHT22;1506;48.932;9.478;2022-12-29T09:11:39;12.80;1.00
2993;DHT22;1506;48.932;9.478;2022-12-29T09:14:07;12.90;1.00
2993;DHT22;1506;48.932;9.478;2022-12-29T09:16:35;12.90;1.00
2993;DHT22;1506;48.932;9.478;2022-12-29T09:19:02;12.90;1.00
2993;DHT22;1506;48.932;9.478;2022-12-29T09:21:29;12.90;1.00
2993;DHT22;1506;48.932;9.478;2022-12-29T09:23:56;13.00;1.00
2993;DHT22;1506;48.932;9.478;2022-12-29T09:26:23;13.00;1.00
2993;DHT22;1506;48.932;9.478;2022-12-29T09:28:50;13.00;1.00
2993;DHT22;1506;48.932;9.478;2022-12-29T09:31:17;13.10;1.00
2993;DHT22;1506;48.932;9.478;2022-12-29T09:33:45;13.00;1.00
2993;DHT22;1506;48.932;9.478;2022-12-29T09:36:12;12.90;1.00
2993;DHT22;1506;48.932;9.478;2022-12-29T09:38:39;13.00;1.00
2993;DHT22;1506;48.932;9.478;2022-12-29T09:41:19;13.00;1.00
2993;DHT22;1506;48.932;9.478;2022-12-29T09:46:44;13.00;1.00
2993;DHT22;1506;48.932;9.478;2022-12-29T09:49:38;12.90;1.00
2993;DHT22;1506;48.932;9.478;2022-12-29T09:52:30;12.90;1.00
2993;DHT22;1506;48.932;9.478;2022-12-29T09:55:04;12.90;1.00
2993;DHT22;1506;48.932;9.478;2022-12-29T10:00:17;12.90;1.00
2993;DHT22;1506;48.932;9.478;2022-12-29T10:05:46;13.00;1.00
2993;DHT22;1506;48.932;9.478;2022-12-29T10:17:00;13.20;1.00
2993;DHT22;1506;48.932;9.478;2022-12-29T10:24:55;13.20;1.00
2993;DHT22;1506;48.932;9.478;2022-12-29T10:27:31;13.20;1.00
2993;DHT22;1506;48.932;9.478;2022-12-29T10:30:01;13.10;1.00
2993;DHT22;1506;48.932;9.478;2022-12-29T10:32:34;13.10;1.00
2993;DHT22;1506;48.932;9.478;2022-12-29T10:35:13;13.10;1.00
2993;DHT22;1506;48.932;9.478;2022-12-29T10:43:29;12.70;51.40
2993;DHT22;1506;48.932;9.478;2022-12-29T10:46:03;12.80;1.00
2993;DHT22;1506;48.932;9.478;2022-12-29T10:48:34;12.90;10.50
2993;DHT22;1506;48.932;9.478;2022-12-29T10:51:07;13.00;1.00
2993;DHT22;1506;48.932;9.478;2022-12-29T10:53:58;13.00;1.00
2993;DHT22;1506;48.932;9.478;2022-12-29T10:56:43;13.00;1.00
2993;DHT22;1506;48.932;9.478;2022-12-29T10:59:24;13.00;1.00
2993;DHT22;1506;48.932;9.478;2022-12-29T11:05:02;12.70;99.90
2993;DHT22;1506;48.932;9.478;2022-12-29T11:07:31;12.60;99.90
2993;DHT22;1506;48.932;9.478;2022-12-29T11:13:00;12.60;99.90
2993;DHT22;1506;48.932;9.478;2022-12-29T11:15:43;12.60;67.30
2993;DHT22;1506;48.932;9.478;2022-12-29T11:18:53;12.70;1.00
2993;DHT22;1506;48.932;9.478;2022-12-29T11:21:34;12.70;99.90
2993;DHT22;1506;48.932;9.478;2022-12-29T11:24:43;12.60;99.90
2993;DHT22;1506;48.932;9.478;2022-12-29T11:27:23;12.70;1.00
2993;DHT22;1506;48.932;9.478;2022-12-29T11:29:53;12.80;74.70
2993;DHT22;1506;48.932;9.478;2022-12-29T11:32:23;12.90;1.00
2993;DHT22;1506;48.932;9.478;2022-12-29T11:34:56;12.90;99.90
2993;DHT22;1506;48.932;9.478;2022-12-29T11:37:38;13.00;1.00
2993;DHT22;1506;48.932;9.478;2022-12-29T11:40:19;13.00;1.00
2993;DHT22;1506;48.932;9.478;2022-12-29T11:42:54;13.00;1.00
2993;DHT22;1506;48.932;9.478;2022-12-29T11:45:25;13.00;1.00
2993;DHT22;1506;48.932;9.478;2022-12-29T11:47:56;13.00;1.00
2993;DHT22;1506;48.932;9.478;2022-12-29T11:50:31;13.00;1.00
2993;DHT22;1506;48.932;9.478;2022-12-29T11:53:59;13.10;1.00
2993;DHT22;1506;48.932;9.478;2022-12-29T11:56:14;13.00;1.00
2993;DHT22;1506;48.932;9.478;2022-12-29T11:58:43;13.00;1.00
2993;DHT22;1506;48.932;9.478;2022-12-29T12:01:17;12.90;1.00
2993;DHT22;1506;48.932;9.478;2022-12-29T12:04:00;12.80;1.00
2993;DHT22;1506;48.932;9.478;2022-12-29T12:06:34;12.90;1.00
2993;DHT22;1506;48.932;9.478;2022-12-29T12:09:16;12.80;99.90
2993;DHT22;1506;48.932;9.478;2022-12-29T12:15:29;12.40;99.90
2993;DHT22;1506;48.932;9.478;2022-12-29T12:20:54;12.30;1.00
2993;DHT22;1506;48.932;9.478;2022-12-29T12:23:57;12.30;2.90
2993;DHT22;1506;48.932;9.478;2022-12-29T12:26:39;12.30;1.00
2993;DHT22;1506;48.932;9.478;2022-12-29T12:29:16;12.40;99.90
2993;DHT22;1506;48.932;9.478;2022-12-29T12:31:54;12.40;1.00
2993;DHT22;1506;48.932;9.478;2022-12-29T12:34:36;12.30;1.00
2993;DHT22;1506;48.932;9.478;2022-12-29T12:43:23;12.00;1.00
2993;DHT22;1506;48.932;9.478;2022-12-29T12:46:18;12.00;2.00
2993;DHT22;1506;48.932;9.478;2022-12-29T12:57:56;12.10;99.90
2993;DHT22;1506;48.932;9.478;2022-12-29T13:01:15;12.20;1.00
2993;DHT22;1506;48.932;9.478;2022-12-29T13:07:02;12.20;1.00
2993;DHT22;1506;48.932;9.478;2022-12-29T13:12:17;12.40;1.00
2993;DHT22;1506;48.932;9.478;2022-12-29T13:17:54;12.60;99.90
2993;DHT22;1506;48.932;9.478;2022-12-29T13:20:36;12.60;99.90
2993;DHT22;1506;48.932;9.478;2022-12-29T13:23:27;12.60;1.00
2993;DHT22;1506;48.932;9.478;2022-12-29T13:32:17;12.50;1.00
2993;DHT22;1506;48.932;9.478;2022-12-29T13:41:01;12.60;96.70
2993;DHT22;1506;48.932;9.478;2022-12-29T13:43:33;12.50;99.90
2993;DHT22;1506;48.932;9.478;2022-12-29T13:46:21;12.40;29.20
2993;DHT22;1506;48.932;9.478;2022-12-29T13:51:25;12.50;99.90
2993;DHT22;1506;48.932;9.478;2022-12-29T13:57:25;12.40;1.00
2993;DHT22;1506;48.932;9.478;2022-12-29T14:00:16;12.30;16.70
2993;DHT22;1506;48.932;9.478;2022-12-29T14:07:59;12.30;42.40
2993;DHT22;1506;48.932;9.478;2022-12-29T14:10:49;12.30;1.00
2993;DHT22;1506;48.932;9.478;2022-12-29T14:13:22;12.30;1.00
2993;DHT22;1506;48.932;9.478;2022-12-29T14:15:58;12.20;1.00
2993;DHT22;1506;48.932;9.478;2022-12-29T14:18:27;12.30;1.00
2993;DHT22;1506;48.932;9.478;2022-12-29T14:21:21;12.30;99.90
2993;DHT22;1506;48.932;9.478;2022-12-29T14:23:50;12.30;1.00
2993;DHT22;1506;48.932;9.478;2022-12-29T14:26:34;12.30;99.90
2993;DHT22;1506;48.932;9.478;2022-12-29T14:31:52;12.30;1.00
2993;DHT22;1506;48.932;9.478;2022-12-29T14:37:01;12.20;1.00
2993;DHT22;1506;48.932;9.478;2022-12-29T14:39:40;12.20;99.90
2993;DHT22;1506;48.932;9.478;2022-12-29T14:44:46;12.20;1.00
2993;DHT22;1506;48.932;9.478;2022-12-29T14:55:32;12.20;99.90
2993;DHT22;1506;48.932;9.478;2022-12-29T14:58:05;12.20;99.90
2993;DHT22;1506;48.932;9.478;2022-12-29T15:00:40;12.20;99.90
2993;DHT22;1506;48.932;9.478;2022-12-29T15:05:47;12.10;99.90
2993;DHT22;1506;48.932;9.478;2022-12-29T15:08:22;12.10;99.90
2993;DHT22;1506;48.932;9.478;2022-12-29T15:10:55;12.00;1.00
2993;DHT22;1506;48.932;9.478;2022-12-29T15:13:34;12.10;1.00
2993;DHT22;1506;48.932;9.478;2022-12-29T15:16:04;12.00;1.00
2993;DHT22;1506;48.932;9.478;2022-12-29T15:18:32;12.00;1.00
2993;DHT22;1506;48.932;9.478;2022-12-29T15:21:06;12.10;1.00
2993;DHT22;1506;48.932;9.478;2022-12-29T15:23:34;12.00;1.00
2993;DHT22;1506;48.932;9.478;2022-12-29T15:26:06;12.00;1.00
2993;DHT22;1506;48.932;9.478;2022-12-29T15:31:19;12.00;99.90
2993;DHT22;1506;48.932;9.478;2022-12-29T15:34:10;12.00;99.90
2993;DHT22;1506;48.932;9.478;2022-12-29T15:36:40;12.00;99.90
2993;DHT22;1506;48.932;9.478;2022-12-29T15:39:28;12.00;99.90
2993;DHT22;1506;48.932;9.478;2022-12-29T15:44:38;12.00;99.90
2993;DHT22;1506;48.932;9.478;2022-12-29T15:47:18;12.00;1.00
2993;DHT22;1506;48.932;9.478;2022-12-29T15:49:52;12.00;99.90
2993;DHT22;1506;48.932;9.478;2022-12-29T15:52:21;12.10;99.90
2993;DHT22;1506;48.932;9.478;2022-12-29T16:02:18;11.10;1.00
2993;DHT22;1506;48.932;9.478;2022-12-29T16:36:01;9.90;99.90
2993;DHT22;1506;48.932;9.478;2022-12-29T16:38:33;9.90;99.90
2993;DHT22;1506;48.932;9.478;2022-12-29T16:41:02;9.90;99.90
2993;DHT22;1506;48.932;9.478;2022-12-29T16:43:36;9.90;99.90
2993;DHT22;1506;48.932;9.478;2022-12-29T16:46:24;9.90;99.90
2993;DHT22;1506;48.932;9.478;2022-12-29T16:48:55;9.70;99.90
2993;DHT22;1506;48.932;9.478;2022-12-29T16:51:35;9.50;99.90
2993;DHT22;1506;48.932;9.478;2022-12-29T16:54:04;9.30;99.90
2993;DHT22;1506;48.932;9.478;2022-12-29T16:56:33;9.30;99.90
2993;DHT22;1506;48.932;9.478;2022-12-29T16:59:09;9.30;99.90
2993;DHT22;1506;48.932;9.478;2022-12-29T17:01:52;9.40;99.90
2993;DHT22;1506;48.932;9.478;2022-12-29T17:04:19;9.40;99.90
2993;DHT22;1506;48.932;9.478;2022-12-29T17:14:52;9.50;99.90
2993;DHT22;1506;48.932;9.478;2022-12-29T17:22:44;9.50;99.90
2993;DHT22;1506;48.932;9.478;2022-12-29T17:27:48;9.50;99.90
2993;DHT22;1506;48.932;9.478;2022-12-29T17:30:20;9.30;99.90
2993;DHT22;1506;48.932;9.478;2022-12-29T17:33:04;9.30;99.90
2993;DHT22;1506;48.932;9.478;2022-12-29T17:35:34;9.20;99.90
2993;DHT22;1506;48.932;9.478;2022-12-29T17:55:30;9.00;99.90
2993;DHT22;1506;48.932;9.478;2022-12-29T17:58:31;9.00;99.90
2993;DHT22;1506;48.932;9.478;2022-12-29T18:01:00;8.90;99.90
2993;DHT22;1506;48.932;9.478;2022-12-29T18:03:31;9.00;99.90
2993;DHT22;1506;48.932;9.478;2022-12-29T18:08:28;9.00;99.90
2993;DHT22;1506;48.932;9.478;2022-12-29T18:10:56;9.00;99.90
2993;DHT22;1506;48.932;9.478;2022-12-29T18:13:26;9.00;99.90
2993;DHT22;1506;48.932;9.478;2022-12-29T18:16:11;9.00;99.90
2993;DHT22;1506;48.932;9.478;2022-12-29T18:18:39;8.90;99.90
2993;DHT22;1506;48.932;9.478;2022-12-29T18:21:08;9.00;99.90
2993;DHT22;1506;48.932;9.478;2022-12-29T18:23:41;9.00;99.90
2993;DHT22;1506;48.932;9.478;2022-12-29T18:26:15;9.00;99.90
2993;DHT22;1506;48.932;9.478;2022-12-29T18:28:53;9.10;99.90
2993;DHT22;1506;48.932;9.478;2022-12-29T18:31:24;9.10;99.90
2993;DHT22;1506;48.932;9.478;2022-12-29T18:33:53;9.10;99.90
2993;DHT22;1506;48.932;9.478;2022-12-29T18:36:20;9.10;99.90
2993;DHT22;1506;48.932;9.478;2022-12-29T18:38:48;9.10;99.90
2993;DHT22;1506;48.932;9.478;2022-12-29T18:43:55;9.00;99.90
2993;DHT22;1506;48.932;9.478;2022-12-29T18:46:23;9.00;99.90
2993;DHT22;1506;48.932;9.478;2022-12-29T18:48:51;9.00;99.90
2993;DHT22;1506;48.932;9.478;2022-12-29T18:51:21;8.90;99.90
2993;DHT22;1506;48.932;9.478;2022-12-29T18:53:50;8.90;99.90
2993;DHT22;1506;48.932;9.478;2022-12-29T18:56:21;8.90;99.90
2993;DHT22;1506;48.932;9.478;2022-12-29T19:01:25;8.90;99.90
2993;DHT22;1506;48.932;9.478;2022-12-29T19:03:53;8.90;99.90
2993;DHT22;1506;48.932;9.478;2022-12-29T19:06:20;8.90;99.90
2993;DHT22;1506;48.932;9.478;2022-12-29T19:08:48;8.90;99.90
2993;DHT22;1506;48.932;9.478;2022-12-29T19:16:18;8.80;99.90
2993;DHT22;1506;48.932;9.478;2022-12-29T19:18:47;8.80;99.90
2993;DHT22;1506;48.932;9.478;2022-12-29T19:21:33;8.80;99.90
2993;DHT22;1506;48.932;9.478;2022-12-29T19:24:02;8.70;99.90
2993;DHT22;1506;48.932;9.478;2022-12-29T19:26:31;8.80;99.90
2993;DHT22;1506;48.932;9.478;2022-12-29T19:29:00;8.70;99.90
